createdAt,value
2023-08-09T00:02:18.659Z,0.60
2023-08-09T00:04:45.242Z,0.30
2023-08-09T00:07:11.802Z,0.38
2023-08-09T00:09:38.637Z,0.30
2023-08-09T00:12:05.270Z,0.47
2023-08-09T00:14:31.827Z,0.80
2023-08-09T00:16:59.096Z,0.40
2023-08-09T00:19:25.926Z,0.30
2023-08-09T00:21:52.421Z,0.50
2023-08-09T00:24:19.041Z,0.40
2023-08-09T00:26:45.547Z,0.40
2023-08-09T00:29:12.034Z,0.30
2023-08-09T00:31:38.622Z,0.60
2023-08-09T00:34:06.822Z,0.28
2023-08-09T00:36:33.348Z,0.30
2023-08-09T00:38:59.883Z,0.40
2023-08-09T00:41:26.381Z,0.38
2023-08-09T00:43:52.907Z,0.40
2023-08-09T00:46:19.582Z,0.38
2023-08-09T00:48:46.773Z,0.50
2023-08-09T00:51:13.344Z,0.75
2023-08-09T00:53:40.209Z,0.52
2023-08-09T00:56:06.936Z,0.40
2023-08-09T00:58:33.463Z,0.68
2023-08-09T01:01:00.080Z,0.50
2023-08-09T01:03:26.745Z,0.80
2023-08-09T01:05:59.362Z,0.50
2023-08-09T01:08:33.911Z,0.52
2023-08-09T01:11:09.511Z,0.35
2023-08-09T01:13:38.305Z,0.60
2023-08-09T01:16:06.576Z,0.30
2023-08-09T01:18:34.311Z,0.50
2023-08-09T01:21:01.790Z,0.40
2023-08-09T01:23:35.919Z,0.50
2023-08-09T01:26:02.553Z,0.40
2023-08-09T01:28:29.061Z,0.32
2023-08-09T01:30:55.825Z,0.40
2023-08-09T01:33:22.467Z,0.40
2023-08-09T01:35:54.218Z,0.40
2023-08-09T01:38:23.283Z,0.70
2023-08-09T01:40:49.995Z,0.40
2023-08-09T01:43:16.827Z,0.40
2023-08-09T01:45:43.394Z,0.38
2023-08-09T01:48:12.420Z,0.40
2023-08-09T01:50:39.407Z,0.55
2023-08-09T01:53:06.009Z,0.55
2023-08-09T01:55:33.043Z,0.40
2023-08-09T01:57:59.555Z,0.35
2023-08-09T02:00:26.366Z,0.32
2023-08-09T02:02:53.692Z,0.30
2023-08-09T02:05:20.561Z,0.30
2023-08-09T02:07:47.958Z,0.40
2023-08-09T02:10:14.575Z,0.40
2023-08-09T02:12:41.705Z,0.30
2023-08-09T02:15:08.635Z,0.40
2023-08-09T02:17:35.883Z,0.50
2023-08-09T02:20:02.961Z,0.35
2023-08-09T02:22:35.674Z,0.40
2023-08-09T02:25:02.229Z,0.40
2023-08-09T02:27:28.865Z,0.28
2023-08-09T02:29:56.601Z,0.57
2023-08-09T02:32:23.212Z,0.55
2023-08-09T02:34:49.736Z,0.50
2023-08-09T02:37:16.267Z,0.30
2023-08-09T02:39:42.763Z,0.40
2023-08-09T02:42:09.283Z,0.47
2023-08-09T02:44:35.935Z,0.75
2023-08-09T02:47:02.822Z,0.47
2023-08-09T02:49:29.725Z,0.40
2023-08-09T02:51:56.241Z,0.47
2023-08-09T02:54:22.789Z,0.80
2023-08-09T02:56:49.372Z,0.65
2023-08-09T02:59:15.872Z,0.40
2023-08-09T03:01:42.530Z,0.45
2023-08-09T03:04:09.090Z,0.50
2023-08-09T03:06:35.620Z,0.30
2023-08-09T03:09:03.506Z,0.32
2023-08-09T03:11:30.044Z,0.45
2023-08-09T03:13:56.643Z,0.82
2023-08-09T03:16:23.800Z,0.30
2023-08-09T03:18:50.610Z,0.43
2023-08-09T03:21:17.362Z,0.40
2023-08-09T03:23:44.551Z,0.40
2023-08-09T03:26:11.312Z,0.40
2023-08-09T03:28:37.874Z,0.30
2023-08-09T03:31:04.682Z,0.40
2023-08-09T03:33:31.795Z,0.43
2023-08-09T03:35:58.325Z,0.40
2023-08-09T03:38:24.816Z,0.38
2023-08-09T03:40:51.378Z,0.40
2023-08-09T03:43:17.873Z,0.40
2023-08-09T03:45:44.563Z,0.40
2023-08-09T03:48:11.156Z,0.40
2023-08-09T03:50:37.657Z,0.32
2023-08-09T03:53:04.272Z,0.40
2023-08-09T03:55:30.945Z,0.60
2023-08-09T03:57:58.107Z,0.50
2023-08-09T04:00:26.103Z,0.50
2023-08-09T04:02:53.316Z,0.40
2023-08-09T04:05:20.751Z,0.40
2023-08-09T04:07:47.716Z,0.68
2023-08-09T04:10:14.608Z,0.40
2023-08-09T04:12:41.456Z,0.40
2023-08-09T04:15:08.284Z,0.82
2023-08-09T04:17:34.828Z,0.32
2023-08-09T04:20:01.673Z,0.40
2023-08-09T04:22:29.260Z,0.50
2023-08-09T04:24:55.796Z,0.30
2023-08-09T04:27:23.564Z,0.30
2023-08-09T04:29:50.449Z,0.40
2023-08-09T04:32:17.071Z,0.55
2023-08-09T04:34:44.374Z,0.45
2023-08-09T04:37:11.490Z,0.40
2023-08-09T04:39:38.099Z,0.50
2023-08-09T04:42:05.803Z,0.45
2023-08-09T04:44:32.473Z,1.30
2023-08-09T04:46:59.605Z,0.40
2023-08-09T04:49:27.415Z,0.50
2023-08-09T04:51:54.908Z,0.40
2023-08-09T04:54:22.270Z,0.40
2023-08-09T04:56:48.960Z,0.55
2023-08-09T04:59:15.584Z,0.30
2023-08-09T05:01:42.226Z,0.40
2023-08-09T05:04:09.352Z,0.65
2023-08-09T05:06:36.459Z,0.40
2023-08-09T05:09:03.458Z,0.35
2023-08-09T05:11:29.944Z,0.40
2023-08-09T05:13:56.482Z,0.55
2023-08-09T05:16:25.945Z,0.40
2023-08-09T05:18:53.283Z,0.77
2023-08-09T05:21:19.970Z,0.60
2023-08-09T05:23:46.514Z,0.45
2023-08-09T05:26:13.032Z,0.45
2023-08-09T05:28:39.566Z,0.40
2023-08-09T05:31:06.106Z,0.50
2023-08-09T05:33:32.617Z,0.30
2023-08-09T05:35:59.164Z,0.47
2023-08-09T05:38:25.666Z,0.40
2023-08-09T05:40:52.284Z,0.70
2023-08-09T05:43:18.848Z,0.50
2023-08-09T05:45:46.251Z,0.50
2023-08-09T05:48:12.757Z,1.95
2023-08-09T05:50:39.363Z,0.40
2023-08-09T05:53:05.926Z,0.50
2023-08-09T05:55:32.449Z,0.47
2023-08-09T05:57:59.025Z,0.40
2023-08-09T06:00:25.600Z,0.57
2023-08-09T06:02:52.332Z,0.50
2023-08-09T06:05:26.870Z,0.35
2023-08-09T06:07:54.176Z,0.43
2023-08-09T06:15:31.578Z,0.40
2023-08-09T06:17:58.206Z,0.60
2023-08-09T06:20:29.017Z,0.50
2023-08-09T06:22:55.815Z,0.50
2023-08-09T06:25:22.542Z,0.77
2023-08-09T06:27:49.176Z,0.63
2023-08-09T06:30:15.764Z,0.55
2023-08-09T06:32:42.427Z,0.70
2023-08-09T06:35:10.857Z,0.50
2023-08-09T06:37:37.559Z,0.60
2023-08-09T06:40:07.996Z,0.82
2023-08-09T06:42:34.800Z,1.25
2023-08-09T06:45:01.814Z,0.50
2023-08-09T06:47:28.387Z,0.43
2023-08-09T06:49:54.923Z,0.90
2023-08-09T06:52:21.516Z,0.50
2023-08-09T06:54:51.359Z,0.50
2023-08-09T06:57:19.971Z,0.70
2023-08-09T06:59:48.611Z,0.50
2023-08-09T07:02:15.973Z,0.93
2023-08-09T07:04:42.654Z,0.52
2023-08-09T07:07:09.438Z,0.60
2023-08-09T07:09:36.054Z,0.70
2023-08-09T07:12:02.703Z,0.60
2023-08-09T07:14:29.248Z,0.65
2023-08-09T07:16:55.834Z,0.60
2023-08-09T07:19:23.130Z,0.55
2023-08-09T07:21:49.812Z,0.32
2023-08-09T07:24:16.390Z,0.40
2023-08-09T07:26:42.976Z,0.60
2023-08-09T07:29:10.028Z,0.70
2023-08-09T07:31:36.851Z,0.85
2023-08-09T07:34:03.533Z,0.43
2023-08-09T07:36:30.108Z,0.40
2023-08-09T07:38:56.929Z,0.65
2023-08-09T07:41:23.462Z,0.30
2023-08-09T07:43:49.991Z,0.40
2023-08-09T07:46:16.591Z,0.70
2023-08-09T07:48:43.157Z,0.50
2023-08-09T07:51:13.471Z,1.17
2023-08-09T07:53:40.609Z,0.60
2023-08-09T07:56:07.218Z,0.60
2023-08-09T07:58:33.809Z,0.75
2023-08-09T08:01:00.367Z,0.82
2023-08-09T08:03:27.066Z,0.70
2023-08-09T08:05:53.631Z,0.60
2023-08-09T08:08:20.297Z,0.50
2023-08-09T08:10:46.881Z,0.50
2023-08-09T08:13:13.839Z,0.80
2023-08-09T08:15:40.414Z,0.60
2023-08-09T08:18:07.861Z,0.40
2023-08-09T08:20:34.707Z,0.70
2023-08-09T08:23:01.250Z,0.43
2023-08-09T08:25:27.763Z,0.40
2023-08-09T08:27:54.288Z,0.70
2023-08-09T08:30:22.442Z,1.00
2023-08-09T08:32:50.103Z,0.80
2023-08-09T08:35:21.427Z,0.50
2023-08-09T08:37:50.416Z,0.70
2023-08-09T08:40:22.233Z,0.40
2023-08-09T08:42:49.412Z,0.50
2023-08-09T08:45:16.598Z,0.60
2023-08-09T08:47:47.062Z,0.52
2023-08-09T08:50:15.013Z,0.60
2023-08-09T08:52:43.722Z,0.50
2023-08-09T08:55:11.353Z,0.60
2023-08-09T08:57:41.207Z,0.40
2023-08-09T09:00:26.790Z,0.50
2023-08-09T09:02:54.646Z,0.60
2023-08-09T09:05:22.056Z,0.38
2023-08-09T09:07:52.539Z,0.43
2023-08-09T09:10:20.731Z,0.60
2023-08-09T09:12:51.333Z,0.43
2023-08-09T09:15:19.145Z,0.40
2023-08-09T09:17:46.304Z,0.80
2023-08-09T09:20:25.853Z,0.55
2023-08-09T09:22:53.422Z,0.40
2023-08-09T09:25:20.649Z,0.40
2023-08-09T09:27:48.728Z,0.52
2023-08-09T09:30:15.260Z,0.60
2023-08-09T09:32:50.692Z,0.52
2023-08-09T09:35:18.315Z,0.43
2023-08-09T09:37:47.519Z,0.50
2023-08-09T09:40:22.298Z,0.40
2023-08-09T09:42:51.629Z,0.40
2023-08-09T09:45:21.227Z,0.40
2023-08-09T09:47:47.834Z,0.47
2023-08-09T09:50:15.283Z,0.70
2023-08-09T09:52:41.826Z,0.50
2023-08-09T09:55:08.541Z,0.40
2023-08-09T09:57:35.035Z,0.38
2023-08-09T10:00:07.566Z,0.40
2023-08-09T10:02:39.902Z,0.57
2023-08-09T10:05:11.419Z,0.38
2023-08-09T10:07:38.201Z,0.40
2023-08-09T10:10:04.875Z,0.40
2023-08-09T10:12:34.639Z,0.50
2023-08-09T10:15:01.992Z,0.40
2023-08-09T10:17:30.899Z,0.40
2023-08-09T10:19:59.543Z,0.40
2023-08-09T10:22:28.607Z,0.38
2023-08-09T10:24:58.531Z,0.50
2023-08-09T10:27:43.506Z,0.40
2023-08-09T10:30:15.111Z,0.70
2023-08-09T10:32:54.928Z,0.40
2023-08-09T10:35:41.456Z,0.40
2023-08-09T10:38:08.596Z,0.30
2023-08-09T10:40:37.890Z,0.35
2023-08-09T10:43:04.872Z,0.77
2023-08-09T10:45:35.325Z,0.57
2023-08-09T10:48:20.737Z,0.20
2023-08-09T10:50:50.496Z,0.40
2023-08-09T10:53:22.909Z,0.50
2023-08-09T10:55:50.580Z,0.52
2023-08-09T10:58:17.135Z,0.40
2023-08-09T11:00:43.832Z,0.30
2023-08-09T11:03:11.734Z,0.40
2023-08-09T11:05:39.118Z,1.35
2023-08-09T11:08:18.681Z,0.80
2023-08-09T11:10:45.315Z,0.47
2023-08-09T11:13:14.140Z,0.40
2023-08-09T11:15:48.909Z,0.55
2023-08-09T11:18:15.990Z,0.30
2023-08-09T11:20:42.939Z,0.47
2023-08-09T11:23:11.679Z,0.40
2023-08-09T11:25:39.683Z,0.57
2023-08-09T11:28:12.123Z,0.43
2023-08-09T11:30:39.653Z,1.05
2023-08-09T11:33:06.994Z,0.47
2023-08-09T11:35:40.413Z,0.40
2023-08-09T11:38:08.332Z,0.40
2023-08-09T11:40:39.733Z,0.35
2023-08-09T11:43:10.500Z,0.50
2023-08-09T11:45:50.594Z,0.30
2023-08-09T11:48:27.422Z,0.40
2023-08-09T11:51:32.269Z,0.17
2023-08-09T11:53:58.862Z,0.30
2023-08-09T11:56:25.519Z,0.30
2023-08-09T11:58:53.740Z,0.40
2023-08-09T12:01:22.263Z,0.20
2023-08-09T12:03:50.839Z,0.50
2023-08-09T12:06:18.976Z,0.30
2023-08-09T12:08:45.574Z,0.90
2023-08-09T12:11:15.893Z,0.50
2023-08-09T12:13:42.462Z,0.38
2023-08-09T12:16:09.268Z,0.25
2023-08-09T12:18:36.947Z,0.20
2023-08-09T12:21:06.888Z,0.40
2023-08-09T12:23:34.087Z,0.30
2023-08-09T12:26:00.614Z,0.40
2023-08-09T12:28:27.107Z,0.22
2023-08-09T12:30:53.671Z,0.40
2023-08-09T12:33:20.195Z,0.50
2023-08-09T12:35:46.766Z,0.65
2023-08-09T12:38:13.754Z,0.43
2023-08-09T12:40:40.351Z,0.20
2023-08-09T12:43:07.490Z,0.20
2023-08-09T12:45:34.034Z,0.20
2023-08-09T12:48:03.892Z,0.30
2023-08-09T12:50:30.465Z,0.30
2023-08-09T12:53:07.692Z,0.30
2023-08-09T12:55:35.314Z,0.40
2023-08-09T12:58:02.023Z,0.43
2023-08-09T13:00:28.595Z,0.20
2023-08-09T13:02:55.312Z,0.22
2023-08-09T13:05:22.386Z,0.47
2023-08-09T13:07:48.940Z,0.17
2023-08-09T13:10:15.625Z,0.30
2023-08-09T13:12:42.138Z,0.30
2023-08-09T13:15:09.376Z,0.30
2023-08-09T13:17:36.608Z,0.30
2023-08-09T13:20:04.573Z,0.25
2023-08-09T13:22:31.295Z,0.30
2023-08-09T13:24:58.423Z,0.20
2023-08-09T13:27:25.044Z,0.40
2023-08-09T13:29:51.690Z,0.32
2023-08-09T13:32:18.267Z,0.20
2023-08-09T13:34:46.912Z,0.40
2023-08-09T13:37:13.437Z,0.40
2023-08-09T13:39:40.117Z,0.40
2023-08-09T13:42:07.062Z,0.40
2023-08-09T13:44:33.675Z,0.38
2023-08-09T13:47:00.275Z,0.40
2023-08-09T13:49:26.908Z,0.40
2023-08-09T13:51:53.625Z,0.40
2023-08-09T13:54:20.128Z,0.40
2023-08-09T13:56:46.676Z,0.50
2023-08-09T13:59:13.200Z,0.60
2023-08-09T14:01:40.883Z,0.10
2023-08-09T14:04:07.583Z,0.50
2023-08-09T14:06:34.794Z,0.32
2023-08-09T14:09:01.413Z,0.38
2023-08-09T14:11:28.040Z,0.40
2023-08-09T14:13:54.586Z,0.20
2023-08-09T14:16:21.626Z,0.38
2023-08-09T14:18:48.439Z,0.32
2023-08-09T14:21:14.926Z,0.30
2023-08-09T14:23:41.549Z,0.45
2023-08-09T14:26:08.074Z,0.32
2023-08-09T14:28:34.578Z,0.17
2023-08-09T14:31:01.531Z,0.30
2023-08-09T14:33:31.601Z,0.20
2023-08-09T14:35:58.329Z,0.30
2023-08-09T14:38:25.486Z,0.40
2023-08-09T14:40:51.986Z,0.70
2023-08-09T14:43:18.576Z,0.40
2023-08-09T14:45:48.395Z,0.30
2023-08-09T14:48:14.982Z,0.47
2023-08-09T14:50:44.189Z,0.22
2023-08-09T14:53:11.238Z,0.30
2023-08-09T14:55:38.071Z,0.40
2023-08-09T14:58:04.740Z,0.40
2023-08-09T15:00:34.038Z,0.22
2023-08-09T15:03:01.143Z,0.50
2023-08-09T15:05:27.798Z,0.32
2023-08-09T15:07:54.556Z,0.22
2023-08-09T15:10:21.087Z,0.50
2023-08-09T15:12:47.618Z,0.40
2023-08-09T15:15:14.227Z,0.40
2023-08-09T15:17:40.871Z,0.50
2023-08-09T15:20:08.314Z,0.32
2023-08-09T15:22:34.861Z,0.40
2023-08-09T15:25:01.407Z,0.40
2023-08-09T15:27:27.937Z,0.40
2023-08-09T15:29:54.445Z,0.40
2023-08-09T15:32:20.952Z,0.47
2023-08-09T15:34:47.548Z,0.30
2023-08-09T15:37:14.075Z,0.28
2023-08-09T15:39:40.667Z,0.30
2023-08-09T15:42:17.026Z,0.40
2023-08-09T15:44:44.875Z,0.30
2023-08-09T15:47:12.720Z,0.47
2023-08-09T15:49:39.537Z,0.47
2023-08-09T15:52:06.382Z,0.30
2023-08-09T15:54:33.528Z,0.60
2023-08-09T15:57:00.077Z,0.40
2023-08-09T15:59:27.441Z,0.70
2023-08-09T16:01:55.505Z,0.47
2023-08-09T16:04:22.692Z,0.60
2023-08-09T16:06:49.344Z,0.60
2023-08-09T16:09:16.255Z,0.50
2023-08-09T16:11:43.609Z,0.30
2023-08-09T16:14:10.870Z,0.65
2023-08-09T16:16:38.408Z,0.65
2023-08-09T16:19:05.646Z,0.52
2023-08-09T16:21:32.281Z,0.52
2023-08-09T16:23:59.445Z,0.85
2023-08-09T16:26:27.224Z,0.40
2023-08-09T16:28:53.828Z,0.43
2023-08-09T16:31:20.384Z,0.57
2023-08-09T16:33:46.974Z,0.43
2023-08-09T16:36:13.538Z,0.40
2023-08-09T16:38:40.098Z,0.82
2023-08-09T16:41:06.609Z,0.40
2023-08-09T16:43:38.490Z,0.40
2023-08-09T16:46:05.430Z,0.43
2023-08-09T16:48:32.850Z,0.45
2023-08-09T16:50:59.521Z,0.47
2023-08-09T16:53:26.054Z,0.82
2023-08-09T16:55:52.640Z,0.60
2023-08-09T16:58:20.213Z,0.40
2023-08-09T17:00:47.079Z,0.40
2023-08-09T17:03:15.552Z,0.50
2023-08-09T17:05:42.731Z,0.30
2023-08-09T17:08:10.874Z,0.30
2023-08-09T17:10:38.039Z,0.52
2023-08-09T17:13:05.080Z,0.65
2023-08-09T17:15:31.591Z,0.50
2023-08-09T17:17:58.215Z,0.38
2023-08-09T17:20:24.827Z,0.30
2023-08-09T17:22:52.524Z,0.45
2023-08-09T17:25:20.125Z,0.47
2023-08-09T17:27:46.873Z,0.40
2023-08-09T17:30:14.133Z,0.40
2023-08-09T17:32:40.775Z,0.35
2023-08-09T17:35:12.300Z,0.60
2023-08-09T17:37:38.843Z,0.30
2023-08-09T17:40:05.691Z,0.38
2023-08-09T17:42:32.187Z,0.38
2023-08-09T17:45:00.801Z,0.40
2023-08-09T17:47:27.412Z,0.50
2023-08-09T17:49:54.006Z,0.70
2023-08-09T17:52:20.500Z,0.70
2023-08-09T17:54:47.051Z,0.50
2023-08-09T17:57:13.558Z,0.50
2023-08-09T17:59:40.052Z,0.70
2023-08-09T18:02:07.131Z,0.82
2023-08-09T18:04:33.827Z,0.50
2023-08-09T18:07:00.417Z,0.60
2023-08-09T18:09:26.938Z,0.40
2023-08-09T18:11:53.514Z,0.40
2023-08-09T18:14:20.151Z,0.52
2023-08-09T18:16:47.708Z,0.40
2023-08-09T18:19:16.648Z,0.43
2023-08-09T18:21:44.477Z,0.50
2023-08-09T18:24:11.070Z,0.68
2023-08-09T18:26:37.784Z,0.40
2023-08-09T18:29:05.107Z,0.50
2023-08-09T18:31:31.801Z,0.38
2023-08-09T18:33:58.450Z,0.32
2023-08-09T18:36:25.130Z,0.32
2023-08-09T18:38:52.640Z,0.50
2023-08-09T18:41:20.301Z,0.30
2023-08-09T18:43:46.929Z,0.47
2023-08-09T18:46:13.493Z,0.50
2023-08-09T18:48:40.161Z,0.50
2023-08-09T18:51:07.406Z,0.40
2023-08-09T18:53:34.086Z,0.45
2023-08-09T18:56:00.688Z,0.47
2023-08-09T18:58:27.292Z,0.80
2023-08-09T19:00:53.857Z,0.40
2023-08-09T19:03:20.540Z,0.82
2023-08-09T19:05:47.585Z,0.50
2023-08-09T19:08:14.248Z,0.52
2023-08-09T19:10:40.813Z,0.43
2023-08-09T19:13:07.377Z,0.63
2023-08-09T19:15:34.706Z,0.30
2023-08-09T19:18:02.910Z,0.60
2023-08-09T19:20:29.470Z,0.60
2023-08-09T19:22:56.329Z,0.50
2023-08-09T19:25:23.634Z,0.88
2023-08-09T19:27:50.349Z,0.60
2023-08-09T19:30:16.979Z,0.60
2023-08-09T19:32:43.649Z,0.50
2023-08-09T19:35:10.374Z,0.82
2023-08-09T19:37:37.994Z,0.57
2023-08-09T19:40:06.502Z,0.40
2023-08-09T19:42:36.370Z,0.50
2023-08-09T19:45:03.817Z,0.82
2023-08-09T19:47:31.285Z,0.50
2023-08-09T19:49:57.828Z,0.50
2023-08-09T19:52:24.870Z,0.90
2023-08-09T19:54:51.584Z,0.65
2023-08-09T19:57:18.103Z,0.60
2023-08-09T19:59:44.586Z,0.85
2023-08-09T20:02:11.172Z,0.60
2023-08-09T20:04:39.167Z,0.60
2023-08-09T20:07:06.147Z,1.15
2023-08-09T20:09:33.144Z,0.77
2023-08-09T20:11:59.916Z,0.75
2023-08-09T20:14:26.523Z,0.80
2023-08-09T20:16:53.130Z,0.80
2023-08-09T20:19:19.763Z,0.80
2023-08-09T20:21:46.350Z,0.93
2023-08-09T20:24:32.836Z,0.50
2023-08-09T20:26:59.379Z,0.88
2023-08-09T20:29:25.979Z,1.13
2023-08-09T20:31:52.519Z,1.15
2023-08-09T20:34:19.034Z,1.08
2023-08-09T20:36:45.647Z,1.08
2023-08-09T20:39:12.173Z,1.25
2023-08-09T20:41:38.758Z,1.00
2023-08-09T20:44:05.927Z,1.17
2023-08-09T20:46:32.516Z,1.20
2023-08-09T20:48:59.094Z,1.00
2023-08-09T20:51:25.661Z,1.13
2023-08-09T20:53:52.318Z,1.30
2023-08-09T20:56:19.034Z,1.20
2023-08-09T20:58:46.154Z,1.25
2023-08-09T21:01:14.019Z,0.80
2023-08-09T21:03:40.684Z,0.98
2023-08-09T21:06:07.442Z,0.80
2023-08-09T21:08:34.066Z,0.60
2023-08-09T21:11:00.578Z,0.80
2023-08-09T21:13:27.129Z,0.70
2023-08-09T21:15:53.700Z,0.70
2023-08-09T21:18:20.324Z,0.77
2023-08-09T21:20:46.948Z,1.08
2023-08-09T21:23:13.518Z,1.30
2023-08-09T21:28:11.834Z,1.50
2023-08-09T21:30:39.387Z,1.60
2023-08-09T21:33:09.218Z,1.20
2023-08-09T21:35:36.131Z,1.05
2023-08-09T21:38:02.671Z,1.13
2023-08-09T21:40:29.317Z,1.48
2023-08-09T21:42:55.849Z,1.00
2023-08-09T21:45:22.385Z,1.00
2023-08-09T21:47:49.046Z,1.02
2023-08-09T21:50:15.630Z,1.00
2023-08-09T21:52:43.080Z,0.95
2023-08-09T21:55:09.714Z,0.95
2023-08-09T21:57:36.253Z,1.17
2023-08-09T22:00:02.819Z,1.00
2023-08-09T22:02:29.729Z,1.38
2023-08-09T22:04:56.415Z,1.02
2023-08-09T22:07:22.965Z,0.95
2023-08-09T22:09:49.501Z,1.23
2023-08-09T22:12:16.106Z,1.05
2023-08-09T22:14:42.603Z,0.95
2023-08-09T22:17:09.121Z,1.60
2023-08-09T22:19:35.657Z,1.10
2023-08-09T22:22:13.755Z,1.23
2023-08-09T22:24:41.335Z,1.23
2023-08-09T22:27:08.109Z,1.13
2023-08-09T22:29:34.627Z,1.38
2023-08-09T22:32:01.242Z,1.00
2023-08-09T22:34:27.812Z,1.00
2023-08-09T22:36:54.316Z,1.02
2023-08-09T22:39:20.853Z,0.88
2023-08-09T22:41:47.570Z,0.82
2023-08-09T22:44:14.069Z,1.45
2023-08-09T22:46:40.592Z,1.42
2023-08-09T22:49:07.225Z,1.48
2023-08-09T22:51:34.827Z,1.25
2023-08-09T22:54:01.372Z,1.45
2023-08-09T22:56:29.188Z,0.95
2023-08-09T22:58:55.704Z,1.08
2023-08-09T23:01:22.301Z,1.27
2023-08-09T23:03:48.975Z,1.48
2023-08-09T23:06:15.535Z,0.88
2023-08-09T23:08:42.100Z,1.00
2023-08-09T23:11:09.418Z,0.98
2023-08-09T23:13:35.981Z,1.88
2023-08-09T23:16:02.698Z,1.27
2023-08-09T23:18:29.629Z,0.90
2023-08-09T23:20:56.172Z,0.85
2023-08-09T23:23:22.773Z,1.27
2023-08-09T23:25:49.528Z,1.52
2023-08-09T23:28:16.074Z,1.48
2023-08-09T23:30:42.785Z,0.93
2023-08-09T23:33:09.405Z,0.90
2023-08-09T23:35:35.992Z,1.05
2023-08-09T23:38:02.548Z,0.90
2023-08-09T23:40:29.119Z,1.05
2023-08-09T23:42:56.030Z,1.23
2023-08-09T23:45:22.751Z,0.85
2023-08-09T23:47:52.102Z,0.93
2023-08-09T23:50:18.726Z,0.90
2023-08-09T23:52:45.281Z,1.50
2023-08-09T23:55:11.818Z,0.98
2023-08-09T23:57:38.322Z,1.20
